sensor_id;sensor_type;location;lat;lon;timestamp;pressure;altitude;pressure_sealevel;temperature;humidity
71057;BME280;58380;48.312;9.246;2022-08-23T04:04:42;93485.66;;;6.76;93.92
71057;BME280;58380;48.312;9.246;2022-08-23T04:07:08;93569.13;;;7.25;94.28
71057;BME280;58380;48.312;9.246;2022-08-23T04:09:34;93665.69;;;7.85;94.52
71057;BME280;58380;48.312;9.246;2022-08-23T04:11:59;93501.75;;;6.80;94.15
71057;BME280;58380;48.312;9.246;2022-08-23T04:14:25;93689.00;;;7.98;94.17
71057;BME280;58380;48.312;9.246;2022-08-23T04:16:51;93661.00;;;7.87;94.14
71057;BME280;58380;48.312;9.246;2022-08-23T04:19:17;93572.00;;;7.23;93.62
71057;BME280;58380;48.312;9.246;2022-08-23T04:21:46;93575.25;;;7.13;93.75
71057;BME280;58380;48.312;9.246;2022-08-23T04:24:15;93672.69;;;7.80;94.02
71057;BME280;58380;48.312;9.246;2022-08-23T04:26:41;93703.84;;;7.88;93.85
71057;BME280;58380;48.312;9.246;2022-08-23T04:29:07;93712.28;;;7.90;94.01
71057;BME280;58380;48.312;9.246;2022-08-23T04:31:33;93709.34;;;7.86;93.84
71057;BME280;58380;48.312;9.246;2022-08-23T04:34:00;93702.41;;;7.80;93.98
71057;BME280;58380;48.312;9.246;2022-08-23T04:36:28;93648.16;;;7.40;93.46
71057;BME280;58380;48.312;9.246;2022-08-23T04:38:57;93590.50;;;7.00;93.18
71057;BME280;58380;48.312;9.246;2022-08-23T04:41:23;93702.47;;;7.68;93.36
71057;BME280;58380;48.312;9.246;2022-08-23T04:44:07;93665.03;;;7.44;93.63
71057;BME280;58380;48.312;9.246;2022-08-23T04:46:32;93680.19;;;7.54;93.34
71057;BME280;58380;48.312;9.246;2022-08-23T04:48:58;93682.31;;;7.57;93.70
71057;BME280;58380;48.312;9.246;2022-08-23T04:51:23;93683.91;;;7.58;93.49
71057;BME280;58380;48.312;9.246;2022-08-23T04:53:49;93708.06;;;7.72;93.91
71057;BME280;58380;48.312;9.246;2022-08-23T04:56:15;93728.69;;;7.80;93.62
71057;BME280;58380;48.312;9.246;2022-08-23T04:58:40;93697.47;;;7.67;93.56
71057;BME280;58380;48.312;9.246;2022-08-23T05:01:07;93727.47;;;7.88;93.65
71057;BME280;58380;48.312;9.246;2022-08-23T05:03:35;93723.84;;;7.89;94.10
71057;BME280;58380;48.312;9.246;2022-08-23T05:06:00;93654.06;;;7.47;94.05
71057;BME280;58380;48.312;9.246;2022-08-23T05:08:29;93722.63;;;8.13;93.96
71057;BME280;58380;48.312;9.246;2022-08-23T05:10:58;93725.31;;;8.35;93.81
71057;BME280;58380;48.312;9.246;2022-08-23T05:13:28;93679.59;;;8.19;92.84
71057;BME280;58380;48.312;9.246;2022-08-23T05:15:54;93713.03;;;8.58;92.04
71057;BME280;58380;48.312;9.246;2022-08-23T05:18:20;93721.44;;;8.77;91.43
71057;BME280;58380;48.312;9.246;2022-08-23T05:20:46;93699.47;;;8.88;90.78
71057;BME280;58380;48.312;9.246;2022-08-23T05:23:11;93719.41;;;9.06;90.77
71057;BME280;58380;48.312;9.246;2022-08-23T05:25:36;93723.09;;;9.27;89.99
71057;BME280;58380;48.312;9.246;2022-08-23T05:28:16;93736.25;;;9.49;89.92
71057;BME280;58380;48.312;9.246;2022-08-23T05:30:52;93717.28;;;9.52;88.64
71057;BME280;58380;48.312;9.246;2022-08-23T05:33:19;93673.38;;;9.36;87.94
71057;BME280;58380;48.312;9.246;2022-08-23T05:35:45;93719.19;;;9.84;87.94
71057;BME280;58380;48.312;9.246;2022-08-23T05:38:10;93725.13;;;10.01;88.24
71057;BME280;58380;48.312;9.246;2022-08-23T05:40:36;93733.41;;;10.15;87.71
71057;BME280;58380;48.312;9.246;2022-08-23T05:43:01;93643.59;;;9.62;87.49
71057;BME280;58380;48.312;9.246;2022-08-23T05:45:26;93734.09;;;10.32;87.64
71057;BME280;58380;48.312;9.246;2022-08-23T05:47:52;93719.63;;;10.40;87.31
71057;BME280;58380;48.312;9.246;2022-08-23T05:50:17;93741.16;;;10.64;87.00
71057;BME280;58380;48.312;9.246;2022-08-23T05:52:43;93695.69;;;10.52;86.83
71057;BME280;58380;48.312;9.246;2022-08-23T05:55:08;93742.97;;;11.01;86.82
71057;BME280;58380;48.312;9.246;2022-08-23T05:57:36;93730.50;;;10.96;86.32
71057;BME280;58380;48.312;9.246;2022-08-23T06:00:04;93747.28;;;11.28;86.03
71057;BME280;58380;48.312;9.246;2022-08-23T06:02:35;93732.53;;;11.37;85.99
71057;BME280;58380;48.312;9.246;2022-08-23T06:05:00;93722.22;;;11.40;86.33
71057;BME280;58380;48.312;9.246;2022-08-23T06:07:25;93724.63;;;11.57;86.03
71057;BME280;58380;48.312;9.246;2022-08-23T06:09:51;93746.66;;;11.83;85.42
71057;BME280;58380;48.312;9.246;2022-08-23T06:12:16;93720.22;;;11.83;85.54
71057;BME280;58380;48.312;9.246;2022-08-23T06:14:42;93741.66;;;12.07;85.00
71057;BME280;58380;48.312;9.246;2022-08-23T06:17:08;93760.72;;;12.35;82.83
71057;BME280;58380;48.312;9.246;2022-08-23T06:19:33;93692.47;;;12.12;84.15
71057;BME280;58380;48.312;9.246;2022-08-23T06:21:59;93678.44;;;12.11;82.96
71057;BME280;58380;48.312;9.246;2022-08-23T06:24:24;93751.16;;;12.75;82.95
71057;BME280;58380;48.312;9.246;2022-08-23T06:26:50;93763.53;;;13.05;82.52
71057;BME280;58380;48.312;9.246;2022-08-23T06:29:17;93753.19;;;13.14;82.19
71057;BME280;58380;48.312;9.246;2022-08-23T06:31:46;93749.44;;;13.25;81.66
71057;BME280;58380;48.312;9.246;2022-08-23T06:34:20;93768.22;;;13.44;80.16
71057;BME280;58380;48.312;9.246;2022-08-23T06:36:52;93742.00;;;13.37;80.37
71057;BME280;58380;48.312;9.246;2022-08-23T06:39:25;93691.19;;;13.10;80.53
71057;BME280;58380;48.312;9.246;2022-08-23T06:41:55;93730.22;;;13.59;81.66
71057;BME280;58380;48.312;9.246;2022-08-23T06:44:24;93762.56;;;14.11;81.79
71057;BME280;58380;48.312;9.246;2022-08-23T06:46:51;93770.06;;;14.38;80.24
71057;BME280;58380;48.312;9.246;2022-08-23T06:49:20;93766.50;;;14.58;78.83
71057;BME280;58380;48.312;9.246;2022-08-23T06:51:51;93764.44;;;14.79;79.67
71057;BME280;58380;48.312;9.246;2022-08-23T06:54:25;93777.00;;;14.97;77.88
71057;BME280;58380;48.312;9.246;2022-08-23T06:56:53;93762.66;;;15.22;77.85
71057;BME280;58380;48.312;9.246;2022-08-23T06:59:20;93769.34;;;15.44;76.84
71057;BME280;58380;48.312;9.246;2022-08-23T07:02:04;93725.81;;;15.35;75.71
71057;BME280;58380;48.312;9.246;2022-08-23T07:04:36;93769.22;;;15.78;75.06
71057;BME280;58380;48.312;9.246;2022-08-23T07:07:04;93759.56;;;15.82;75.11
71057;BME280;58380;48.312;9.246;2022-08-23T07:09:31;93774.56;;;16.16;73.08
71057;BME280;58380;48.312;9.246;2022-08-23T07:11:57;93755.13;;;16.15;72.76
71057;BME280;58380;48.312;9.246;2022-08-23T07:14:24;93747.06;;;16.21;70.98
71057;BME280;58380;48.312;9.246;2022-08-23T07:16:54;93765.44;;;16.55;72.25
71057;BME280;58380;48.312;9.246;2022-08-23T07:19:24;93757.03;;;16.48;71.16
71057;BME280;58380;48.312;9.246;2022-08-23T07:21:52;93771.59;;;16.69;70.61
71057;BME280;58380;48.312;9.246;2022-08-23T07:24:17;93786.78;;;16.88;72.03
71057;BME280;58380;48.312;9.246;2022-08-23T07:26:44;93781.97;;;17.03;71.61
71057;BME280;58380;48.312;9.246;2022-08-23T07:29:15;93744.25;;;17.10;70.96
71057;BME280;58380;48.312;9.246;2022-08-23T07:31:44;93781.13;;;17.63;69.17
71057;BME280;58380;48.312;9.246;2022-08-23T07:34:18;93780.13;;;17.87;67.69
71057;BME280;58380;48.312;9.246;2022-08-23T07:36:46;93773.19;;;18.00;67.05
71057;BME280;58380;48.312;9.246;2022-08-23T07:39:14;93784.06;;;18.17;66.68
71057;BME280;58380;48.312;9.246;2022-08-23T07:41:40;93774.63;;;18.20;66.84
71057;BME280;58380;48.312;9.246;2022-08-23T07:44:08;93771.75;;;18.16;66.32
71057;BME280;58380;48.312;9.246;2022-08-23T07:46:36;93775.81;;;18.50;65.93
71057;BME280;58380;48.312;9.246;2022-08-23T07:49:04;93760.22;;;18.74;65.56
71057;BME280;58380;48.312;9.246;2022-08-23T07:51:32;93778.47;;;19.17;64.16
71057;BME280;58380;48.312;9.246;2022-08-23T07:54:01;93788.66;;;19.47;64.15
71057;BME280;58380;48.312;9.246;2022-08-23T07:56:28;93742.16;;;19.34;62.04
71057;BME280;58380;48.312;9.246;2022-08-23T07:58:54;93770.19;;;19.76;62.63
71057;BME280;58380;48.312;9.246;2022-08-23T08:01:20;93790.41;;;19.91;61.03
71057;BME280;58380;48.312;9.246;2022-08-23T08:03:50;93787.56;;;19.96;60.55
71057;BME280;58380;48.312;9.246;2022-08-23T08:06:27;93793.59;;;20.02;58.20
71057;BME280;58380;48.312;9.246;2022-08-23T08:09:03;93762.53;;;19.92;59.11
71057;BME280;58380;48.312;9.246;2022-08-23T08:11:31;93793.75;;;20.14;52.76
71057;BME280;58380;48.312;9.246;2022-08-23T08:13:58;93744.66;;;19.79;53.26
71057;BME280;58380;48.312;9.246;2022-08-23T08:18:55;93805.44;;;20.36;51.37
71057;BME280;58380;48.312;9.246;2022-08-23T08:21:22;93795.22;;;20.64;55.77
71057;BME280;58380;48.312;9.246;2022-08-23T08:23:47;93790.47;;;20.87;53.82
71057;BME280;58380;48.312;9.246;2022-08-23T08:26:14;93797.88;;;20.99;51.45
71057;BME280;58380;48.312;9.246;2022-08-23T08:28:40;93783.66;;;20.98;52.01
71057;BME280;58380;48.312;9.246;2022-08-23T08:31:06;93796.91;;;21.03;49.80
71057;BME280;58380;48.312;9.246;2022-08-23T08:33:33;93788.38;;;21.01;51.03
71057;BME280;58380;48.312;9.246;2022-08-23T08:35:58;93797.31;;;21.31;49.28
71057;BME280;58380;48.312;9.246;2022-08-23T08:38:24;93781.41;;;21.09;44.83
71057;BME280;58380;48.312;9.246;2022-08-23T08:41:14;93801.16;;;21.13;46.01
71057;BME280;58380;48.312;9.246;2022-08-23T08:44:19;93804.09;;;21.29;48.52
71057;BME280;58380;48.312;9.246;2022-08-23T08:46:53;93808.66;;;21.54;49.87
71057;BME280;58380;48.312;9.246;2022-08-23T08:49:33;93791.00;;;21.45;46.03
71057;BME280;58380;48.312;9.246;2022-08-23T08:52:34;93807.53;;;21.56;49.25
71057;BME280;58380;48.312;9.246;2022-08-23T08:55:10;93806.22;;;21.70;48.61
71057;BME280;58380;48.312;9.246;2022-08-23T08:57:42;93781.75;;;21.63;41.63
71057;BME280;58380;48.312;9.246;2022-08-23T09:00:10;93813.03;;;21.68;42.43
71057;BME280;58380;48.312;9.246;2022-08-23T09:02:40;93809.69;;;21.71;46.17
71057;BME280;58380;48.312;9.246;2022-08-23T09:05:18;93802.84;;;21.82;46.15
71057;BME280;58380;48.312;9.246;2022-08-23T09:12:16;93793.56;;;22.01;44.28
71057;BME280;58380;48.312;9.246;2022-08-23T09:14:27;93809.91;;;22.16;45.28
71057;BME280;58380;48.312;9.246;2022-08-23T09:17:49;93757.47;;;21.81;44.39
71057;BME280;58380;48.312;9.246;2022-08-23T09:20:17;93776.06;;;21.94;45.57
71057;BME280;58380;48.312;9.246;2022-08-23T09:22:47;93807.56;;;22.15;43.40
71057;BME280;58380;48.312;9.246;2022-08-23T09:25:19;93794.78;;;22.12;43.70
71057;BME280;58380;48.312;9.246;2022-08-23T09:27:44;93808.81;;;22.17;45.81
71057;BME280;58380;48.312;9.246;2022-08-23T09:30:13;93811.53;;;22.09;41.91
71057;BME280;58380;48.312;9.246;2022-08-23T09:32:43;93808.72;;;22.05;44.94
71057;BME280;58380;48.312;9.246;2022-08-23T09:35:28;93795.59;;;22.04;44.42
71057;BME280;58380;48.312;9.246;2022-08-23T09:38:01;93810.69;;;22.26;46.23
71057;BME280;58380;48.312;9.246;2022-08-23T09:40:36;93814.56;;;22.37;44.50
71057;BME280;58380;48.312;9.246;2022-08-23T09:43:09;93810.84;;;22.29;41.62
71057;BME280;58380;48.312;9.246;2022-08-23T09:45:40;93821.63;;;22.21;44.05
71057;BME280;58380;48.312;9.246;2022-08-23T09:48:38;93810.50;;;22.31;41.97
71057;BME280;58380;48.312;9.246;2022-08-23T09:51:15;93816.25;;;22.21;40.67
71057;BME280;58380;48.312;9.246;2022-08-23T09:53:49;93756.72;;;21.71;44.14
71057;BME280;58380;48.312;9.246;2022-08-23T09:56:25;93795.94;;;22.02;44.77
71057;BME280;58380;48.312;9.246;2022-08-23T09:58:51;93811.81;;;22.25;44.02
71057;BME280;58380;48.312;9.246;2022-08-23T10:01:23;93812.66;;;22.37;40.89
71057;BME280;58380;48.312;9.246;2022-08-23T10:12:50;93809.25;;;22.28;42.29
71057;BME280;58380;48.312;9.246;2022-08-23T10:15:18;93777.16;;;22.23;40.51
71057;BME280;58380;48.312;9.246;2022-08-23T10:17:59;93788.47;;;22.37;42.61
71057;BME280;58380;48.312;9.246;2022-08-23T10:20:49;93759.41;;;22.31;44.64
71057;BME280;58380;48.312;9.246;2022-08-23T10:23:43;93766.22;;;22.49;42.53
71057;BME280;58380;48.312;9.246;2022-08-23T10:26:50;93803.06;;;22.91;43.19
71057;BME280;58380;48.312;9.246;2022-08-23T10:29:23;93803.03;;;22.99;42.42
71057;BME280;58380;48.312;9.246;2022-08-23T10:34:53;93795.25;;;22.98;43.17
71057;BME280;58380;48.312;9.246;2022-08-23T10:43:22;93803.41;;;23.22;41.47
71057;BME280;58380;48.312;9.246;2022-08-23T10:45:52;93788.88;;;23.02;40.62
71057;BME280;58380;48.312;9.246;2022-08-23T10:48:24;93782.66;;;22.90;39.74
71057;BME280;58380;48.312;9.246;2022-08-23T10:53:41;93792.66;;;23.22;37.47
71057;BME280;58380;48.312;9.246;2022-08-23T10:56:13;93781.63;;;23.15;41.59
71057;BME280;58380;48.312;9.246;2022-08-23T10:59:00;93794.00;;;23.29;42.63
71057;BME280;58380;48.312;9.246;2022-08-23T11:04:46;93739.53;;;23.11;42.25
71057;BME280;58380;48.312;9.246;2022-08-23T11:07:27;93788.00;;;23.44;40.88
71057;BME280;58380;48.312;9.246;2022-08-23T11:13:17;93784.63;;;23.47;41.35
71057;BME280;58380;48.312;9.246;2022-08-23T11:23:46;93774.09;;;23.79;38.91
71057;BME280;58380;48.312;9.246;2022-08-23T11:28:48;93739.28;;;23.49;40.64
71057;BME280;58380;48.312;9.246;2022-08-23T11:31:35;93779.47;;;23.79;39.30
71057;BME280;58380;48.312;9.246;2022-08-23T11:34:18;93764.56;;;23.81;40.97
71057;BME280;58380;48.312;9.246;2022-08-23T11:54:16;93778.34;;;23.67;41.08
71057;BME280;58380;48.312;9.246;2022-08-23T11:57:18;93770.34;;;23.71;40.03
71057;BME280;58380;48.312;9.246;2022-08-23T12:07:50;93715.69;;;23.71;39.83
71057;BME280;58380;48.312;9.246;2022-08-23T12:17:03;93739.75;;;24.28;40.12
71057;BME280;58380;48.312;9.246;2022-08-23T12:19:58;93754.03;;;24.41;38.81
71057;BME280;58380;48.312;9.246;2022-08-23T12:25:43;93755.63;;;24.30;38.98
71057;BME280;58380;48.312;9.246;2022-08-23T12:32:02;93755.94;;;24.28;36.93
71057;BME280;58380;48.312;9.246;2022-08-23T12:34:21;93742.50;;;24.16;40.05
71057;BME280;58380;48.312;9.246;2022-08-23T12:37:08;93765.13;;;23.99;39.25
71057;BME280;58380;48.312;9.246;2022-08-23T12:39:45;93769.84;;;23.78;41.64
71057;BME280;58380;48.312;9.246;2022-08-23T12:42:17;93761.28;;;23.88;42.63
71057;BME280;58380;48.312;9.246;2022-08-23T12:47:36;93699.03;;;24.05;38.33
71057;BME280;58380;48.312;9.246;2022-08-23T12:50:19;93736.03;;;24.45;35.80
71057;BME280;58380;48.312;9.246;2022-08-23T12:53:02;93763.22;;;24.52;36.55
71057;BME280;58380;48.312;9.246;2022-08-23T12:55:33;93750.97;;;24.43;42.13
71057;BME280;58380;48.312;9.246;2022-08-23T12:58:11;93729.97;;;24.48;39.17
71057;BME280;58380;48.312;9.246;2022-08-23T13:00:43;93689.16;;;24.38;38.73
71057;BME280;58380;48.312;9.246;2022-08-23T13:03:19;93731.50;;;24.62;41.14
71057;BME280;58380;48.312;9.246;2022-08-23T13:05:55;93745.81;;;24.78;37.04
71057;BME280;58380;48.312;9.246;2022-08-23T13:11:19;93750.22;;;24.30;40.01
71057;BME280;58380;48.312;9.246;2022-08-23T13:13:47;93702.53;;;23.94;41.68
71057;BME280;58380;48.312;9.246;2022-08-23T13:19:22;93753.63;;;24.67;36.39
71057;BME280;58380;48.312;9.246;2022-08-23T13:24:43;93746.41;;;25.00;37.98
71057;BME280;58380;48.312;9.246;2022-08-23T13:27:35;93747.00;;;25.21;39.42
71057;BME280;58380;48.312;9.246;2022-08-23T13:32:50;93751.88;;;25.63;39.86
71057;BME280;58380;48.312;9.246;2022-08-23T13:38:17;93706.53;;;25.72;37.35
71057;BME280;58380;48.312;9.246;2022-08-23T13:41:08;93735.28;;;25.80;36.54
71057;BME280;58380;48.312;9.246;2022-08-23T13:46:21;93712.81;;;25.76;38.55
71057;BME280;58380;48.312;9.246;2022-08-23T13:49:09;93751.53;;;25.65;38.53
71057;BME280;58380;48.312;9.246;2022-08-23T13:51:42;93740.38;;;25.34;38.20
71057;BME280;58380;48.312;9.246;2022-08-23T13:54:27;93757.69;;;25.17;37.44
71057;BME280;58380;48.312;9.246;2022-08-23T13:57:00;93704.03;;;24.88;38.88
71057;BME280;58380;48.312;9.246;2022-08-23T13:59:36;93748.22;;;24.95;38.18
71057;BME280;58380;48.312;9.246;2022-08-23T14:02:10;93727.16;;;24.73;41.21
71057;BME280;58380;48.312;9.246;2022-08-23T14:04:39;93675.16;;;24.60;41.09
71057;BME280;58380;48.312;9.246;2022-08-23T14:07:06;93679.47;;;24.93;39.94
71057;BME280;58380;48.312;9.246;2022-08-23T14:09:34;93740.72;;;25.65;39.09
71057;BME280;58380;48.312;9.246;2022-08-23T14:12:02;93713.97;;;25.44;35.83
71057;BME280;58380;48.312;9.246;2022-08-23T14:14:32;93689.56;;;25.24;34.72
71057;BME280;58380;48.312;9.246;2022-08-23T14:17:00;93666.81;;;25.25;37.04
71057;BME280;58380;48.312;9.246;2022-08-23T14:19:26;93683.50;;;25.63;36.53
71057;BME280;58380;48.312;9.246;2022-08-23T14:21:51;93728.34;;;26.15;37.16
71057;BME280;58380;48.312;9.246;2022-08-23T14:24:18;93698.38;;;26.04;36.54
71057;BME280;58380;48.312;9.246;2022-08-23T14:26:43;93671.94;;;25.97;35.90
71057;BME280;58380;48.312;9.246;2022-08-23T14:29:09;93706.59;;;26.27;36.50
71057;BME280;58380;48.312;9.246;2022-08-23T14:31:35;93698.28;;;26.55;36.05
71057;BME280;58380;48.312;9.246;2022-08-23T14:34:00;93693.72;;;26.79;36.61
71057;BME280;58380;48.312;9.246;2022-08-23T14:36:26;93685.25;;;26.61;33.33
71057;BME280;58380;48.312;9.246;2022-08-23T14:38:51;93735.31;;;26.90;33.39
71057;BME280;58380;48.312;9.246;2022-08-23T14:41:21;93721.56;;;26.99;35.00
71057;BME280;58380;48.312;9.246;2022-08-23T14:43:49;93716.28;;;27.06;36.34
71057;BME280;58380;48.312;9.246;2022-08-23T14:46:17;93654.13;;;26.94;34.60
71057;BME280;58380;48.312;9.246;2022-08-23T14:48:43;93618.91;;;26.51;34.41
71057;BME280;58380;48.312;9.246;2022-08-23T14:51:27;93719.78;;;26.87;34.30
71057;BME280;58380;48.312;9.246;2022-08-23T14:54:00;93672.81;;;26.56;34.95
71057;BME280;58380;48.312;9.246;2022-08-23T14:56:28;93667.22;;;26.49;35.47
71057;BME280;58380;48.312;9.246;2022-08-23T14:58:54;93710.97;;;26.71;35.76
71057;BME280;58380;48.312;9.246;2022-08-23T15:01:20;93683.19;;;26.54;33.78
71057;BME280;58380;48.312;9.246;2022-08-23T15:03:53;93611.88;;;26.27;35.21
71057;BME280;58380;48.312;9.246;2022-08-23T15:06:33;93678.63;;;26.58;34.75
71057;BME280;58380;48.312;9.246;2022-08-23T15:09:06;93676.09;;;26.30;34.81
71057;BME280;58380;48.312;9.246;2022-08-23T15:12:09;93624.81;;;25.98;36.49
71057;BME280;58380;48.312;9.246;2022-08-23T15:15:09;93646.47;;;26.37;35.22
71057;BME280;58380;48.312;9.246;2022-08-23T15:22:11;93752.50;;;25.88;36.31
71057;BME280;58380;48.312;9.246;2022-08-23T15:24:47;93605.41;;;24.46;35.88
71057;BME280;58380;48.312;9.246;2022-08-23T15:27:45;93622.84;;;24.37;39.24
71057;BME280;58380;48.312;9.246;2022-08-23T15:30:14;93677.56;;;24.93;38.84
71057;BME280;58380;48.312;9.246;2022-08-23T15:32:50;93680.16;;;24.74;39.02
71057;BME280;58380;48.312;9.246;2022-08-23T15:35:33;93665.13;;;24.32;38.86
71057;BME280;58380;48.312;9.246;2022-08-23T15:38:03;93600.16;;;23.57;39.19
71057;BME280;58380;48.312;9.246;2022-08-23T15:43:27;93643.97;;;23.29;41.90
71057;BME280;58380;48.312;9.246;2022-08-23T15:45:53;93683.47;;;23.25;42.63
71057;BME280;58380;48.312;9.246;2022-08-23T15:48:22;93601.69;;;22.47;44.24
71057;BME280;58380;48.312;9.246;2022-08-23T15:50:54;93661.00;;;22.63;46.00
71057;BME280;58380;48.312;9.246;2022-08-23T15:53:22;93600.84;;;22.22;45.26
71057;BME280;58380;48.312;9.246;2022-08-23T15:55:48;93672.31;;;22.56;48.01
71057;BME280;58380;48.312;9.246;2022-08-23T15:58:24;93632.84;;;22.48;47.07
71057;BME280;58380;48.312;9.246;2022-08-23T16:00:52;93731.38;;;23.56;45.32
71057;BME280;58380;48.312;9.246;2022-08-23T16:03:19;93738.25;;;24.03;43.50
71057;BME280;58380;48.312;9.246;2022-08-23T16:05:48;93683.31;;;24.07;43.07
71057;BME280;58380;48.312;9.246;2022-08-23T16:08:31;93754.34;;;24.80;41.96
71057;BME280;58380;48.312;9.246;2022-08-23T16:11:00;93679.50;;;24.49;41.95
71057;BME280;58380;48.312;9.246;2022-08-23T16:13:29;93632.47;;;24.22;41.59
71057;BME280;58380;48.312;9.246;2022-08-23T16:15:56;93663.22;;;24.33;40.95
71057;BME280;58380;48.312;9.246;2022-08-23T16:18:22;93667.81;;;24.32;40.37
71057;BME280;58380;48.312;9.246;2022-08-23T16:20:48;93705.03;;;24.39;41.03
71057;BME280;58380;48.312;9.246;2022-08-23T16:23:13;93739.66;;;24.37;41.12
71057;BME280;58380;48.312;9.246;2022-08-23T16:25:39;93732.72;;;24.24;41.03
71057;BME280;58380;48.312;9.246;2022-08-23T16:28:06;93698.97;;;23.89;41.25
71057;BME280;58380;48.312;9.246;2022-08-23T16:30:32;93701.88;;;23.84;40.45
71057;BME280;58380;48.312;9.246;2022-08-23T16:32:59;93730.72;;;23.96;42.13
71057;BME280;58380;48.312;9.246;2022-08-23T16:35:24;93719.28;;;23.87;40.13
71057;BME280;58380;48.312;9.246;2022-08-23T16:37:50;93731.41;;;23.93;40.48
71057;BME280;58380;48.312;9.246;2022-08-23T16:40:16;93704.66;;;23.63;41.48
71057;BME280;58380;48.312;9.246;2022-08-23T16:42:42;93715.22;;;23.56;42.03
71057;BME280;58380;48.312;9.246;2022-08-23T16:45:08;93735.00;;;23.60;42.23
71057;BME280;58380;48.312;9.246;2022-08-23T16:47:38;93725.44;;;23.26;42.52
71057;BME280;58380;48.312;9.246;2022-08-23T16:50:06;93751.13;;;23.36;42.46
71057;BME280;58380;48.312;9.246;2022-08-23T16:52:33;93735.78;;;23.24;42.61
71057;BME280;58380;48.312;9.246;2022-08-23T16:55:00;93707.53;;;22.97;44.55
71057;BME280;58380;48.312;9.246;2022-08-23T16:57:27;93722.72;;;23.01;44.91
71057;BME280;58380;48.312;9.246;2022-08-23T16:59:52;93748.44;;;22.90;44.53
71057;BME280;58380;48.312;9.246;2022-08-23T17:02:28;93737.84;;;22.73;45.75
71057;BME280;58380;48.312;9.246;2022-08-23T17:04:56;93733.00;;;22.66;44.66
71057;BME280;58380;48.312;9.246;2022-08-23T17:07:22;93725.59;;;22.63;43.79
71057;BME280;58380;48.312;9.246;2022-08-23T17:09:48;93737.13;;;22.64;43.95
71057;BME280;58380;48.312;9.246;2022-08-23T17:12:14;93738.66;;;22.52;45.52
71057;BME280;58380;48.312;9.246;2022-08-23T17:14:42;93754.13;;;22.55;45.08
71057;BME280;58380;48.312;9.246;2022-08-23T17:17:10;93710.31;;;22.13;45.64
71057;BME280;58380;48.312;9.246;2022-08-23T17:19:37;93753.03;;;22.35;45.63
71057;BME280;58380;48.312;9.246;2022-08-23T17:22:03;93754.00;;;22.31;45.96
71057;BME280;58380;48.312;9.246;2022-08-23T17:24:28;93748.34;;;22.03;45.51
71057;BME280;58380;48.312;9.246;2022-08-23T17:26:54;93763.97;;;22.09;46.06
71057;BME280;58380;48.312;9.246;2022-08-23T17:29:19;93759.75;;;22.00;46.92
71057;BME280;58380;48.312;9.246;2022-08-23T17:31:44;93764.66;;;21.97;47.94
71057;BME280;58380;48.312;9.246;2022-08-23T17:34:10;93762.84;;;21.81;49.89
71057;BME280;58380;48.312;9.246;2022-08-23T17:36:40;93767.47;;;21.71;48.91
71057;BME280;58380;48.312;9.246;2022-08-23T17:39:13;93775.78;;;21.58;49.66
71057;BME280;58380;48.312;9.246;2022-08-23T17:41:41;93769.16;;;21.46;50.17
71057;BME280;58380;48.312;9.246;2022-08-23T17:44:07;93775.22;;;21.35;50.06
71057;BME280;58380;48.312;9.246;2022-08-23T17:46:37;93780.59;;;21.26;50.95
71057;BME280;58380;48.312;9.246;2022-08-23T17:49:05;93748.31;;;20.96;50.82
71057;BME280;58380;48.312;9.246;2022-08-23T17:51:32;93773.22;;;21.05;50.45
71057;BME280;58380;48.312;9.246;2022-08-23T17:53:58;93772.63;;;20.91;51.03
71057;BME280;58380;48.312;9.246;2022-08-23T17:56:23;93784.78;;;20.88;52.96
71057;BME280;58380;48.312;9.246;2022-08-23T17:58:49;93755.97;;;20.59;52.13
71057;BME280;58380;48.312;9.246;2022-08-23T18:01:14;93793.63;;;20.72;52.81
71057;BME280;58380;48.312;9.246;2022-08-23T18:03:40;93789.72;;;20.60;52.90
71057;BME280;58380;48.312;9.246;2022-08-23T18:06:05;93798.34;;;20.48;55.30
71057;BME280;58380;48.312;9.246;2022-08-23T18:08:31;93784.63;;;20.15;56.21
71057;BME280;58380;48.312;9.246;2022-08-23T18:10:56;93806.34;;;20.14;55.23
71057;BME280;58380;48.312;9.246;2022-08-23T18:13:22;93814.06;;;20.07;55.38
71057;BME280;58380;48.312;9.246;2022-08-23T18:15:49;93810.91;;;19.96;56.66
71057;BME280;58380;48.312;9.246;2022-08-23T18:18:14;93805.34;;;19.83;57.13
71057;BME280;58380;48.312;9.246;2022-08-23T18:20:40;93805.84;;;19.54;59.16
71057;BME280;58380;48.312;9.246;2022-08-23T18:23:06;93817.16;;;19.43;59.97
71057;BME280;58380;48.312;9.246;2022-08-23T18:25:32;93823.06;;;19.31;59.43
71057;BME280;58380;48.312;9.246;2022-08-23T18:27:57;93819.56;;;19.22;59.90
71057;BME280;58380;48.312;9.246;2022-08-23T18:30:45;93807.97;;;19.04;59.94
71057;BME280;58380;48.312;9.246;2022-08-23T18:33:12;93826.56;;;19.09;59.84
71057;BME280;58380;48.312;9.246;2022-08-23T18:35:39;93822.00;;;18.87;61.38
71057;BME280;58380;48.312;9.246;2022-08-23T18:38:05;93825.94;;;18.67;62.31
71057;BME280;58380;48.312;9.246;2022-08-23T18:40:32;93812.09;;;18.42;62.38
71057;BME280;58380;48.312;9.246;2022-08-23T18:45:45;93781.41;;;18.03;63.79
71057;BME280;58380;48.312;9.246;2022-08-23T18:48:12;93828.19;;;18.15;64.32
71057;BME280;58380;48.312;9.246;2022-08-23T18:50:39;93849.63;;;18.09;65.23
71057;BME280;58380;48.312;9.246;2022-08-23T18:53:05;93819.69;;;17.71;65.79
71057;BME280;58380;48.312;9.246;2022-08-23T18:55:32;93825.91;;;17.53;66.43
71057;BME280;58380;48.312;9.246;2022-08-23T18:57:57;93856.75;;;17.59;67.63
71057;BME280;58380;48.312;9.246;2022-08-23T19:00:23;93851.75;;;17.24;68.45
71057;BME280;58380;48.312;9.246;2022-08-23T19:02:48;93847.00;;;17.08;68.74
71057;BME280;58380;48.312;9.246;2022-08-23T19:05:14;93852.78;;;16.96;69.13
71057;BME280;58380;48.312;9.246;2022-08-23T19:07:39;93864.13;;;16.88;69.86
71057;BME280;58380;48.312;9.246;2022-08-23T19:10:05;93869.34;;;16.74;69.83
71057;BME280;58380;48.312;9.246;2022-08-23T19:12:31;93871.22;;;16.73;69.87
71057;BME280;58380;48.312;9.246;2022-08-23T19:14:57;93874.69;;;16.74;70.86
71057;BME280;58380;48.312;9.246;2022-08-23T19:17:22;93872.03;;;16.55;71.34